createdAt,value
2023-05-14T00:01:52.072Z,12.70
2023-05-14T00:04:19.751Z,12.70
2023-05-14T00:06:46.870Z,12.70
2023-05-14T00:09:13.815Z,12.70
2023-05-14T00:11:40.686Z,12.70
2023-05-14T00:14:07.450Z,12.70
2023-05-14T00:16:34.335Z,12.70
2023-05-14T00:19:01.305Z,12.70
2023-05-14T00:21:28.347Z,12.70
2023-05-14T00:23:55.269Z,12.70
2023-05-14T00:26:22.252Z,12.70
2023-05-14T00:28:49.722Z,12.70
2023-05-14T00:31:16.677Z,12.70
2023-05-14T00:33:43.503Z,12.70
2023-05-14T00:36:10.897Z,12.70
2023-05-14T00:38:37.659Z,12.70
2023-05-14T00:41:04.641Z,12.70
2023-05-14T00:43:33.187Z,12.70
2023-05-14T00:46:01.011Z,12.60
2023-05-14T00:48:28.254Z,12.60
2023-05-14T00:50:55.462Z,12.60
2023-05-14T00:53:22.711Z,12.60
2023-05-14T00:55:50.247Z,12.60
2023-05-14T00:58:19.282Z,12.60
2023-05-14T01:00:46.288Z,12.60
2023-05-14T01:03:13.244Z,12.60
2023-05-14T01:06:17.350Z,12.50
2023-05-14T01:08:46.983Z,12.50
2023-05-14T01:11:28.396Z,12.60
2023-05-14T01:14:23.847Z,12.60
2023-05-14T01:16:56.682Z,12.60
2023-05-14T01:19:44.008Z,12.50
2023-05-14T01:22:12.444Z,12.60
2023-05-14T01:24:40.004Z,12.50
2023-05-14T01:27:23.551Z,12.50
2023-05-14T01:29:56.673Z,12.50
2023-05-14T01:32:25.526Z,12.50
2023-05-14T01:34:53.208Z,12.50
2023-05-14T01:37:21.228Z,12.50
2023-05-14T01:39:50.137Z,12.50
2023-05-14T01:42:17.035Z,12.50
2023-05-14T01:44:44.052Z,12.50
2023-05-14T01:47:10.991Z,12.50
2023-05-14T01:49:38.065Z,12.50
2023-05-14T01:52:05.330Z,12.50
2023-05-14T01:54:32.154Z,12.40
2023-05-14T01:56:59.005Z,12.40
2023-05-14T01:59:25.873Z,12.50
2023-05-14T02:01:52.795Z,12.40
2023-05-14T02:04:20.897Z,12.40
2023-05-14T02:06:47.843Z,12.30
2023-05-14T02:09:14.644Z,12.30
2023-05-14T02:11:41.643Z,12.20
2023-05-14T02:14:08.481Z,12.20
2023-05-14T02:16:35.552Z,12.20
2023-05-14T02:19:02.561Z,12.20
2023-05-14T02:21:30.166Z,12.20
2023-05-14T02:23:57.006Z,12.20
2023-05-14T02:26:23.889Z,12.20
2023-05-14T02:28:50.899Z,12.10
2023-05-14T02:31:19.511Z,12.10
2023-05-14T02:33:46.356Z,12.00
2023-05-14T02:36:13.399Z,12.00
2023-05-14T02:38:40.207Z,11.90
2023-05-14T02:41:07.121Z,11.90
2023-05-14T02:43:33.953Z,11.90
2023-05-14T02:46:00.850Z,11.90
2023-05-14T02:48:27.787Z,11.80
2023-05-14T02:50:54.640Z,11.80
2023-05-14T02:53:21.468Z,11.80
2023-05-14T02:55:48.292Z,11.80
2023-05-14T02:58:15.377Z,11.70
2023-05-14T03:00:42.284Z,11.70
2023-05-14T03:03:09.630Z,11.70
2023-05-14T03:05:37.101Z,11.70
2023-05-14T03:08:03.995Z,11.70
2023-05-14T03:10:32.832Z,11.70
2023-05-14T03:12:59.779Z,11.70
2023-05-14T03:15:26.601Z,11.80
2023-05-14T03:17:53.557Z,11.70
2023-05-14T03:20:20.689Z,11.70
2023-05-14T03:22:47.532Z,11.80
2023-05-14T03:25:14.331Z,11.70
2023-05-14T03:27:41.193Z,11.70
2023-05-14T03:30:08.655Z,11.70
2023-05-14T03:32:35.528Z,11.60
2023-05-14T03:35:02.630Z,11.60
2023-05-14T03:37:29.628Z,11.50
2023-05-14T03:39:56.472Z,11.60
2023-05-14T03:42:23.331Z,11.60
2023-05-14T03:44:50.170Z,11.60
2023-05-14T03:47:16.993Z,11.50
2023-05-14T03:49:43.955Z,11.50
2023-05-14T03:52:12.775Z,11.50
2023-05-14T03:54:41.257Z,11.60
2023-05-14T03:57:08.110Z,11.60
2023-05-14T03:59:34.928Z,11.60
2023-05-14T04:02:01.936Z,11.60
2023-05-14T04:04:29.036Z,11.60
2023-05-14T04:06:56.178Z,11.60
2023-05-14T04:09:23.455Z,11.60
2023-05-14T04:11:51.254Z,11.60
2023-05-14T04:14:18.161Z,11.60
2023-05-14T04:16:45.467Z,11.60
2023-05-14T04:19:12.644Z,11.60
2023-05-14T04:21:39.628Z,11.60
2023-05-14T04:24:06.847Z,11.70
2023-05-14T04:26:33.696Z,11.70
2023-05-14T04:29:03.046Z,11.70
2023-05-14T04:31:30.762Z,11.70
2023-05-14T04:33:57.588Z,11.70
2023-05-14T04:36:24.820Z,11.70
2023-05-14T04:38:51.707Z,11.70
2023-05-14T04:41:18.682Z,11.80
2023-05-14T04:43:49.753Z,11.80
2023-05-14T04:46:16.671Z,11.80
2023-05-14T04:48:43.629Z,11.80
2023-05-14T04:51:10.667Z,11.80
2023-05-14T04:53:37.478Z,11.80
2023-05-14T04:56:04.324Z,11.70
2023-05-14T04:58:34.527Z,11.70
2023-05-14T05:01:02.925Z,11.70
2023-05-14T05:03:29.896Z,11.70
2023-05-14T05:05:56.867Z,11.70
2023-05-14T05:08:23.822Z,11.80
2023-05-14T05:10:50.736Z,11.70
2023-05-14T05:13:17.567Z,11.70
2023-05-14T05:15:44.512Z,11.70
2023-05-14T05:18:11.411Z,11.70
2023-05-14T05:20:38.191Z,11.70
2023-05-14T05:23:05.024Z,11.80
2023-05-14T05:25:31.929Z,11.80
2023-05-14T05:27:58.754Z,11.80
2023-05-14T05:30:25.919Z,11.80
2023-05-14T05:32:53.099Z,11.80
2023-05-14T05:35:20.039Z,11.90
2023-05-14T05:37:46.865Z,11.90
2023-05-14T05:40:14.431Z,11.90
2023-05-14T05:42:42.291Z,11.90
2023-05-14T05:45:09.565Z,11.90
2023-05-14T05:47:36.436Z,11.90
2023-05-14T05:50:03.375Z,12.00
2023-05-14T05:52:30.341Z,12.00
2023-05-14T05:54:57.201Z,12.00
2023-05-14T05:57:26.205Z,12.00
2023-05-14T05:59:53.584Z,12.00
2023-05-14T06:02:20.721Z,12.10
2023-05-14T06:04:47.570Z,12.00
2023-05-14T06:07:14.470Z,12.10
2023-05-14T06:09:41.317Z,12.10
2023-05-14T06:12:08.522Z,12.10
2023-05-14T06:14:35.407Z,12.10
2023-05-14T06:17:02.440Z,12.10
2023-05-14T06:19:29.375Z,12.10
2023-05-14T06:21:56.275Z,12.10
2023-05-14T06:24:23.085Z,12.00
2023-05-14T06:26:49.917Z,12.10
2023-05-14T06:29:16.737Z,12.10
2023-05-14T06:31:43.608Z,12.10
2023-05-14T06:34:10.788Z,12.10
2023-05-14T06:36:37.622Z,12.10
2023-05-14T06:39:04.491Z,12.10
2023-05-14T06:41:31.346Z,12.10
2023-05-14T06:43:58.173Z,12.20
2023-05-14T06:46:24.992Z,12.20
2023-05-14T06:48:51.799Z,12.20
2023-05-14T06:51:18.649Z,12.30
2023-05-14T06:53:45.534Z,12.30
2023-05-14T06:56:13.654Z,12.30
2023-05-14T06:58:40.515Z,12.40
2023-05-14T07:01:07.466Z,12.40
2023-05-14T07:03:34.316Z,12.40
2023-05-14T07:06:01.337Z,12.40
2023-05-14T07:08:28.132Z,12.50
2023-05-14T07:10:54.967Z,12.50
2023-05-14T07:13:21.941Z,12.60
2023-05-14T07:15:49.014Z,12.60
2023-05-14T07:18:15.915Z,12.70
2023-05-14T07:20:42.864Z,12.70
2023-05-14T07:23:09.720Z,12.70
2023-05-14T07:25:36.752Z,12.80
2023-05-14T07:28:04.059Z,12.90
2023-05-14T07:30:31.012Z,12.90
2023-05-14T07:32:57.898Z,12.90
2023-05-14T07:35:24.807Z,13.00
2023-05-14T07:37:51.756Z,13.10
2023-05-14T07:40:18.773Z,13.10
2023-05-14T07:42:45.631Z,13.10
2023-05-14T07:45:12.488Z,13.10
2023-05-14T07:47:40.887Z,13.20
2023-05-14T07:50:08.697Z,13.20
2023-05-14T07:52:35.902Z,13.20
2023-05-14T07:55:03.733Z,13.30
2023-05-14T07:57:30.679Z,13.30
2023-05-14T07:59:57.562Z,13.40
2023-05-14T08:02:24.547Z,13.40
2023-05-14T08:04:51.569Z,13.40
2023-05-14T08:07:18.472Z,13.50
2023-05-14T08:09:45.310Z,13.50
2023-05-14T08:12:12.122Z,13.60
2023-05-14T08:14:39.021Z,13.60
2023-05-14T08:17:06.168Z,13.70
2023-05-14T08:19:33.354Z,13.80
2023-05-14T08:22:00.484Z,13.90
2023-05-14T08:24:27.357Z,13.90
2023-05-14T08:26:54.920Z,13.90
2023-05-14T08:29:21.920Z,14.10
2023-05-14T08:31:49.910Z,14.20
2023-05-14T08:34:16.992Z,14.20
2023-05-14T08:36:43.896Z,14.20
2023-05-14T08:39:10.740Z,14.30
2023-05-14T08:41:37.802Z,14.40
2023-05-14T08:44:10.783Z,14.40
2023-05-14T08:46:38.879Z,14.40
2023-05-14T08:49:28.745Z,14.30
2023-05-14T08:51:56.514Z,14.30
2023-05-14T08:54:25.289Z,14.30
2023-05-14T08:56:52.506Z,14.40
2023-05-14T08:59:19.802Z,14.40
2023-05-14T09:01:48.591Z,14.40
2023-05-14T09:04:18.964Z,14.40
2023-05-14T09:06:48.877Z,14.40
2023-05-14T09:09:16.291Z,14.50
2023-05-14T09:11:47.279Z,14.50
2023-05-14T09:14:14.264Z,14.60
2023-05-14T09:16:44.996Z,14.60
2023-05-14T09:19:13.736Z,14.60
2023-05-14T09:21:41.257Z,14.70
2023-05-14T09:24:08.814Z,14.80
2023-05-14T09:26:35.788Z,14.90
2023-05-14T09:29:06.042Z,14.90
2023-05-14T09:31:33.881Z,15.00
2023-05-14T09:34:00.925Z,15.00
2023-05-14T09:36:27.797Z,15.10
2023-05-14T09:38:57.896Z,15.10
2023-05-14T09:41:24.975Z,15.20
2023-05-14T09:43:52.197Z,15.20
2023-05-14T09:46:19.257Z,15.20
2023-05-14T09:48:46.682Z,15.20
2023-05-14T09:51:13.926Z,15.20
2023-05-14T09:53:41.667Z,15.20
2023-05-14T09:56:08.574Z,15.20
2023-05-14T09:58:35.459Z,15.20
2023-05-14T10:01:03.086Z,15.20
2023-05-14T10:03:30.906Z,15.20
2023-05-14T10:06:03.696Z,15.20
2023-05-14T10:08:35.818Z,15.20
2023-05-14T10:11:08.336Z,15.20
2023-05-14T10:13:41.614Z,15.20
2023-05-14T10:16:11.315Z,15.20
2023-05-14T10:18:46.694Z,15.30
2023-05-14T10:21:14.824Z,15.40
2023-05-14T10:23:42.545Z,15.40
2023-05-14T10:26:10.545Z,15.50
2023-05-14T10:28:37.673Z,15.50
2023-05-14T10:31:04.544Z,15.60
2023-05-14T10:33:47.452Z,15.70
2023-05-14T10:36:14.460Z,15.80
2023-05-14T10:38:41.461Z,15.90
2023-05-14T10:41:17.794Z,15.90
2023-05-14T10:43:44.988Z,15.90
2023-05-14T10:46:14.016Z,16.00
2023-05-14T10:48:45.331Z,16.10
2023-05-14T10:51:12.732Z,16.10
2023-05-14T10:53:41.831Z,16.20
2023-05-14T10:56:12.056Z,16.20
2023-05-14T10:58:45.928Z,16.30
2023-05-14T11:01:13.696Z,16.30
2023-05-14T11:03:45.906Z,16.20
2023-05-14T11:06:15.762Z,16.20
2023-05-14T11:08:43.916Z,16.20
2023-05-14T11:11:11.146Z,16.20
2023-05-14T11:13:38.495Z,16.20
2023-05-14T11:16:21.555Z,16.30
2023-05-14T11:19:01.652Z,16.40
2023-05-14T11:21:29.058Z,16.40
2023-05-14T11:23:56.604Z,16.40
2023-05-14T11:26:24.392Z,16.50
2023-05-14T11:28:51.696Z,16.50
2023-05-14T11:31:19.133Z,16.50
2023-05-14T11:33:46.415Z,16.60
2023-05-14T11:36:13.412Z,16.70
2023-05-14T11:38:51.467Z,16.70
2023-05-14T11:41:21.043Z,16.70
2023-05-14T11:43:48.241Z,16.70
2023-05-14T11:46:18.821Z,16.70
2023-05-14T11:48:46.050Z,16.70
2023-05-14T11:51:13.060Z,16.80
2023-05-14T11:53:39.966Z,16.90
2023-05-14T11:56:09.037Z,17.00
2023-05-14T11:58:36.856Z,17.10
2023-05-14T12:01:03.735Z,17.10
2023-05-14T12:03:31.062Z,17.10
2023-05-14T12:06:02.560Z,17.10
2023-05-14T12:08:31.385Z,17.00
2023-05-14T12:10:59.992Z,16.90
2023-05-14T12:13:28.150Z,16.70
2023-05-14T12:15:56.985Z,16.60
2023-05-14T12:18:28.940Z,16.60
2023-05-14T12:20:56.138Z,16.60
2023-05-14T12:23:40.989Z,16.50
2023-05-14T12:26:09.178Z,16.50
2023-05-14T12:28:43.405Z,16.50
2023-05-14T12:31:10.577Z,16.40
2023-05-14T12:33:37.400Z,16.40
2023-05-14T12:36:20.356Z,16.30
2023-05-14T12:38:49.437Z,16.30
2023-05-14T12:41:17.698Z,16.20
2023-05-14T12:43:44.947Z,16.20
2023-05-14T12:46:11.779Z,16.20
2023-05-14T12:48:38.633Z,16.20
2023-05-14T12:51:06.185Z,16.20
2023-05-14T12:53:33.627Z,16.20
2023-05-14T12:56:00.751Z,16.30
2023-05-14T12:58:27.529Z,16.30
2023-05-14T13:00:54.636Z,16.30
2023-05-14T13:03:21.564Z,16.40
2023-05-14T13:05:48.529Z,16.40
2023-05-14T13:08:17.916Z,16.40
2023-05-14T13:10:45.139Z,16.40
2023-05-14T13:13:12.061Z,16.40
2023-05-14T13:15:38.838Z,16.30
2023-05-14T13:18:05.836Z,16.30
2023-05-14T13:20:34.381Z,16.20
2023-05-14T13:23:01.168Z,16.20
2023-05-14T13:25:28.101Z,16.10
2023-05-14T13:27:56.039Z,16.20
2023-05-14T13:30:22.933Z,16.20
2023-05-14T13:32:49.880Z,16.20
2023-05-14T13:35:17.202Z,16.30
2023-05-14T13:37:44.483Z,16.20
2023-05-14T13:40:11.905Z,16.20
2023-05-14T13:42:41.457Z,16.30
2023-05-14T13:45:09.082Z,16.40
2023-05-14T13:47:35.987Z,16.40
2023-05-14T13:50:02.860Z,16.50
2023-05-14T13:52:29.651Z,16.50
2023-05-14T13:54:56.832Z,16.60
2023-05-14T13:57:23.593Z,16.60
2023-05-14T13:59:51.027Z,16.70
2023-05-14T14:02:17.882Z,16.60
2023-05-14T14:04:44.788Z,16.70
2023-05-14T14:07:11.625Z,16.60
2023-05-14T14:09:38.480Z,16.60
2023-05-14T14:12:06.155Z,16.60
2023-05-14T14:14:33.173Z,16.60
2023-05-14T14:17:01.151Z,16.50
2023-05-14T14:19:28.001Z,16.50
2023-05-14T14:21:54.878Z,16.60
2023-05-14T14:24:21.748Z,16.70
2023-05-14T14:26:48.559Z,16.80
2023-05-14T14:29:15.381Z,17.00
2023-05-14T14:31:43.559Z,17.20
2023-05-14T14:34:10.915Z,17.20
2023-05-14T14:36:37.727Z,17.20
2023-05-14T14:39:04.876Z,17.20
2023-05-14T14:41:31.745Z,17.20
2023-05-14T14:43:58.518Z,17.20
2023-05-14T14:46:25.413Z,17.20
2023-05-14T14:48:52.748Z,17.10
2023-05-14T14:51:19.773Z,17.20
2023-05-14T14:53:46.573Z,17.20
2023-05-14T14:56:13.377Z,17.40
2023-05-14T14:58:40.479Z,17.70
2023-05-14T15:01:07.616Z,17.80
2023-05-14T15:03:34.591Z,17.80
2023-05-14T15:06:01.429Z,17.80
2023-05-14T15:08:28.641Z,17.60
2023-05-14T15:10:56.423Z,17.60
2023-05-14T15:13:24.052Z,17.50
2023-05-14T15:15:52.435Z,17.60
2023-05-14T15:18:19.375Z,17.70
2023-05-14T15:20:46.441Z,17.80
2023-05-14T15:23:13.328Z,18.10
2023-05-14T15:25:40.179Z,18.50
2023-05-14T15:28:07.681Z,18.80
2023-05-14T15:30:34.899Z,19.00
2023-05-14T15:33:01.838Z,19.00
2023-05-14T15:35:28.704Z,18.70
2023-05-14T15:37:59.276Z,18.40
2023-05-14T15:40:27.805Z,18.20
2023-05-14T15:42:54.857Z,17.90
2023-05-14T15:45:21.869Z,17.90
2023-05-14T15:47:48.811Z,17.80
2023-05-14T15:50:15.711Z,17.80
2023-05-14T15:52:42.552Z,18.00
2023-05-14T15:55:09.989Z,18.10
2023-05-14T15:57:36.855Z,18.30
2023-05-14T16:00:11.122Z,18.40
2023-05-14T16:02:39.335Z,18.30
2023-05-14T16:05:07.533Z,18.60
2023-05-14T16:07:34.600Z,18.70
2023-05-14T16:10:01.423Z,18.90
2023-05-14T16:12:28.310Z,19.00
2023-05-14T16:14:57.026Z,19.30
2023-05-14T16:17:24.112Z,19.70
2023-05-14T16:19:51.391Z,19.90
2023-05-14T16:22:19.240Z,19.90
2023-05-14T16:24:46.170Z,19.70
2023-05-14T16:27:13.119Z,19.50
2023-05-14T16:29:40.058Z,19.20
2023-05-14T16:32:07.222Z,18.90
2023-05-14T16:34:34.264Z,18.50
2023-05-14T16:37:01.134Z,18.30
2023-05-14T16:39:28.024Z,18.30
2023-05-14T16:41:54.897Z,18.10
2023-05-14T16:44:21.785Z,18.00
2023-05-14T16:46:48.723Z,17.80
2023-05-14T16:49:15.603Z,17.70
2023-05-14T16:51:43.864Z,17.60
2023-05-14T16:54:10.729Z,17.50
2023-05-14T16:56:37.688Z,17.50
2023-05-14T16:59:04.683Z,17.30
2023-05-14T17:01:32.198Z,17.20
2023-05-14T17:03:59.145Z,17.20
2023-05-14T17:06:26.025Z,17.10
2023-05-14T17:08:53.052Z,17.10
2023-05-14T17:11:21.094Z,17.00
2023-05-14T17:13:47.911Z,16.90
2023-05-14T17:16:14.913Z,16.90
2023-05-14T17:18:41.744Z,16.80
2023-05-14T17:21:08.715Z,16.70
2023-05-14T17:23:35.556Z,16.70
2023-05-14T17:26:02.555Z,16.60
2023-05-14T17:28:30.053Z,16.70
2023-05-14T17:30:57.221Z,16.70
2023-05-14T17:33:24.232Z,16.80
2023-05-14T17:35:51.123Z,16.90
2023-05-14T17:38:17.997Z,16.90
2023-05-14T17:40:45.035Z,16.90
2023-05-14T17:43:12.046Z,16.90
2023-05-14T17:45:52.528Z,17.00
2023-05-14T17:48:21.186Z,16.90
2023-05-14T17:50:48.020Z,16.90
2023-05-14T17:53:15.004Z,16.90
2023-05-14T17:55:43.789Z,16.80
2023-05-14T17:58:15.544Z,16.80
2023-05-14T18:00:43.509Z,16.70
2023-05-14T18:03:11.473Z,16.70
2023-05-14T18:05:38.911Z,16.70
2023-05-14T18:08:05.940Z,16.70
2023-05-14T18:10:32.882Z,16.60
2023-05-14T18:12:59.732Z,16.60
2023-05-14T18:15:27.432Z,16.60
2023-05-14T18:17:54.606Z,16.60
2023-05-14T18:20:21.652Z,16.50
2023-05-14T18:22:50.510Z,16.50
2023-05-14T18:25:17.478Z,16.40
2023-05-14T18:27:45.022Z,16.40
2023-05-14T18:30:14.126Z,16.30
2023-05-14T18:32:44.873Z,16.20
2023-05-14T18:35:12.895Z,16.20
2023-05-14T18:37:40.005Z,16.10
2023-05-14T18:40:07.618Z,16.10
2023-05-14T18:42:34.832Z,16.00
2023-05-14T18:45:01.781Z,16.00
2023-05-14T18:47:28.753Z,15.90
2023-05-14T18:49:58.112Z,15.80
2023-05-14T18:52:26.318Z,15.70
2023-05-14T18:54:54.645Z,15.60
2023-05-14T18:57:21.744Z,15.50
2023-05-14T18:59:48.899Z,15.40
2023-05-14T19:02:16.278Z,15.40
2023-05-14T19:04:52.452Z,15.20
2023-05-14T19:07:21.074Z,15.20
2023-05-14T19:09:48.204Z,15.10
2023-05-14T19:12:16.257Z,15.00
2023-05-14T19:14:43.321Z,14.90
2023-05-14T19:17:10.947Z,14.80
2023-05-14T19:19:39.232Z,14.70
2023-05-14T19:22:06.686Z,14.70
2023-05-14T19:24:33.693Z,14.60
2023-05-14T19:27:00.812Z,14.50
2023-05-14T19:29:27.705Z,14.40
2023-05-14T19:31:54.682Z,14.40
2023-05-14T19:34:21.997Z,14.30
2023-05-14T19:36:49.031Z,14.30
2023-05-14T19:39:15.858Z,14.20
2023-05-14T19:41:42.760Z,14.20
2023-05-14T19:44:09.655Z,14.10
2023-05-14T19:46:36.622Z,14.00
2023-05-14T19:49:03.608Z,14.00
2023-05-14T19:51:30.604Z,14.00
2023-05-14T19:53:57.518Z,13.90
2023-05-14T19:56:26.420Z,13.80
2023-05-14T19:58:54.507Z,13.80
2023-05-14T20:01:21.451Z,13.70
2023-05-14T20:03:48.765Z,13.70
2023-05-14T20:06:15.804Z,13.70
2023-05-14T20:08:42.772Z,13.60
2023-05-14T20:11:09.637Z,13.60
2023-05-14T20:13:36.760Z,13.50
2023-05-14T20:16:03.952Z,13.60
2023-05-14T20:18:31.298Z,13.50
2023-05-14T20:20:58.396Z,13.50
2023-05-14T20:23:25.368Z,13.50
2023-05-14T20:25:52.339Z,13.50
2023-05-14T20:28:19.197Z,13.50
2023-05-14T20:30:46.082Z,13.50
2023-05-14T20:33:13.821Z,13.50
2023-05-14T20:35:43.856Z,13.50
2023-05-14T20:38:12.753Z,13.50
2023-05-14T20:40:40.401Z,13.40
2023-05-14T20:43:07.287Z,13.40
2023-05-14T20:45:34.216Z,13.40
2023-05-14T20:48:01.348Z,13.40
2023-05-14T20:50:28.250Z,13.30
2023-05-14T20:52:55.672Z,13.30
2023-05-14T20:55:22.767Z,13.30
2023-05-14T20:57:49.960Z,13.30
2023-05-14T21:00:17.223Z,13.20
2023-05-14T21:02:44.348Z,13.20
2023-05-14T21:05:11.376Z,13.10
2023-05-14T21:07:39.443Z,13.10
2023-05-14T21:10:08.567Z,13.00
2023-05-14T21:12:35.628Z,13.00
2023-05-14T21:15:02.550Z,13.00
2023-05-14T21:17:29.508Z,12.90
2023-05-14T21:19:56.379Z,12.90
2023-05-14T21:22:23.297Z,12.80
2023-05-14T21:24:51.113Z,12.80
2023-05-14T21:27:18.053Z,12.80
2023-05-14T21:29:46.412Z,12.70
2023-05-14T21:32:13.490Z,12.70
2023-05-14T21:34:40.508Z,12.60
2023-05-14T21:37:07.375Z,12.60
2023-05-14T21:39:34.266Z,12.60
2023-05-14T21:42:01.106Z,12.50
2023-05-14T21:44:27.930Z,12.50
2023-05-14T21:46:54.755Z,12.40
2023-05-14T21:49:21.610Z,12.40
2023-05-14T21:51:52.944Z,12.40
2023-05-14T21:54:20.872Z,12.30
2023-05-14T21:56:48.118Z,12.30
2023-05-14T21:59:15.258Z,12.30
2023-05-14T22:02:04.891Z,12.20
2023-05-14T22:04:29.917Z,12.20
2023-05-14T22:06:56.815Z,12.20
2023-05-14T22:09:23.746Z,12.10
2023-05-14T22:11:50.587Z,12.10
2023-05-14T22:14:17.439Z,12.10
2023-05-14T22:16:44.436Z,12.10
2023-05-14T22:19:11.944Z,12.00
2023-05-14T22:21:38.910Z,12.00
2023-05-14T22:24:05.992Z,12.00
2023-05-14T22:26:32.950Z,11.90
2023-05-14T22:28:59.772Z,11.90
2023-05-14T22:31:26.593Z,11.90
2023-05-14T22:33:53.659Z,11.90
2023-05-14T22:36:20.507Z,11.80
2023-05-14T22:38:47.443Z,11.80
2023-05-14T22:41:14.248Z,11.80
2023-05-14T22:43:41.100Z,11.70
2023-05-14T22:46:08.033Z,11.70
2023-05-14T22:48:34.839Z,11.70
2023-05-14T22:51:01.641Z,11.60
2023-05-14T22:53:28.433Z,11.60
2023-05-14T22:55:55.295Z,11.60
2023-05-14T22:58:22.166Z,11.60
2023-05-14T23:00:49.094Z,11.60
2023-05-14T23:03:16.002Z,11.50
2023-05-14T23:05:42.769Z,11.50
2023-05-14T23:08:10.541Z,11.50
2023-05-14T23:10:37.412Z,11.50
2023-05-14T23:13:04.606Z,11.40
2023-05-14T23:15:31.659Z,11.40
2023-05-14T23:17:58.700Z,11.40
2023-05-14T23:20:25.680Z,11.30
2023-05-14T23:22:53.979Z,11.30
2023-05-14T23:25:20.839Z,11.30
2023-05-14T23:27:48.125Z,11.20
2023-05-14T23:30:15.147Z,11.20
2023-05-14T23:32:42.046Z,11.20
2023-05-14T23:35:09.543Z,11.20
2023-05-14T23:37:41.637Z,11.20
2023-05-14T23:40:09.610Z,11.10
2023-05-14T23:42:36.362Z,11.10
2023-05-14T23:45:03.395Z,11.10
2023-05-14T23:47:30.268Z,11.00
2023-05-14T23:49:57.315Z,11.00
2023-05-14T23:52:24.153Z,11.00
2023-05-14T23:54:50.977Z,11.00
2023-05-14T23:57:17.872Z,11.00
2023-05-14T23:59:44.764Z,11.00
